LIVC 192355Z AUTO 29010KT //// 10/08 Q1035 LIVC 192255Z AUTO 30014KT //// 10/08 Q1035 LIVC 192155Z AUTO 31015KT //// 10/08 Q1035 LIVC 192055Z AUTO 32013KT //// 10/07 Q1035 LIVC 191955Z AUTO 30011KT //// 11/07 Q1035 LIVC 191855Z AUTO 31014KT //// 11/06 Q1034 LIVC 191755Z AUTO 30012KT //// 12/07 Q1034 LIVC 191655Z AUTO 24005KT 180V320 //// 12/08 Q1034 LIVC 191555Z AUTO 22004KT //// 12/08 Q1034 LIVC 191455Z AUTO 19002KT //// 12/08 Q1034 LIVC 191355Z AUTO 22002KT //// 13/07 Q1034 LIVC 191255Z AUTO 04003KT //// 12/07 Q1034 LIVC 191155Z AUTO 08003KT //// 12/07 Q1034 LIVC 191055Z AUTO 19004KT //// 12/07 Q1034 LIVC 190955Z AUTO 07004KT //// 12/06 Q1034 LIVC 190855Z AUTO 02004KT //// 11/03 Q1034 LIVC 190755Z AUTO 02003KT //// 10/03 Q1034 LIVC 190655Z AUTO 03003KT //// 10/02 Q1033 LIVC 190555Z AUTO 01003KT //// 09/02 Q1033 LIVC 190455Z AUTO 02007KT //// 08/02 Q1032 LIVC 190355Z AUTO 07012KT //// 07/03 Q1032 LIVC 190255Z AUTO 08015KT //// 06/01 Q1032 LIVC 190155Z AUTO 07022KT //// 07/M09 Q1032 LIVC 190055Z AUTO 08022KT //// 07/M09 Q1032 LIVC 182355Z AUTO 08022KT //// 07/M01 Q1032 LIVC 182255Z AUTO 08021KT //// 07/00 Q1032 LIVC 182155Z AUTO 08020KT //// 07/01 Q1032 LIVC 182055Z AUTO 08015KT //// 08/01 Q1032 LIVC 181955Z AUTO 08014KT //// 08/01 Q1031 LIVC 181855Z AUTO 04008KT //// 09/05 Q1031 LIVC 181755Z AUTO 02003KT //// 10/05 Q1031 LIVC 181655Z AUTO 03005KT //// 11/05 Q1030 LIVC 181555Z AUTO 07007KT //// 11/09 Q1030 LIVC 181455Z AUTO 05009KT //// 11/08 Q1031 LIVC 181355Z AUTO 08012KT //// 11/08 Q1030 LIVC 181255Z AUTO 05009KT //// 11/09 Q1030

METAR Messwerte "CIMONE MOUNTAIN" LIVC

Zurück zur Übersicht

Ortsname
Ländercode / m ü. NN
Zeit Temperatur Taupunkt Rel.
Luftfeuchte
Luftdruck:
Altimeter
NN
Station
Wind in Beaufort
(Knoten)
Sichtweite
(Meter)
Wolken
(Meter über Grund)
Wettererscheinung
CIMONE MOUNTAIN
IT 2139
Fr 20.05. 01:5510887 %1035
1041
799
WNW 3 (10)   
CIMONE MOUNTAIN
IT 2139
Fr 20.05. 00:5510887 %1035
1041
799
WNW 4 (14)   
CIMONE MOUNTAIN
IT 2139
Do 19.05. 23:5510887 %1035
1041
799
NW 4 (15)   
CIMONE MOUNTAIN
IT 2139
Do 19.05. 22:5510782 %1035
1041
799
NW 4 (13)   
CIMONE MOUNTAIN
IT 2139
Do 19.05. 21:5511776 %1035
1040
799
WNW 4 (11)   
CIMONE MOUNTAIN
IT 2139
Do 19.05. 20:5511671 %1034
1039
798
NW 4 (14)   
CIMONE MOUNTAIN
IT 2139
Do 19.05. 19:5512771 %1034
1038
798
WNW 4 (12)   
CIMONE MOUNTAIN
IT 2139
Do 19.05. 18:5512876 %1034
1038
798
WSW 2 (5)
S - NW
   
CIMONE MOUNTAIN
IT 2139
Do 19.05. 17:5512876 %1034
1038
798
SW 2 (4)   
CIMONE MOUNTAIN
IT 2139
Do 19.05. 16:5512876 %1034
1038
798
S 1 (2)   
CIMONE MOUNTAIN
IT 2139
Do 19.05. 15:5513767 %1034
1037
798
SW 1 (2)   
CIMONE MOUNTAIN
IT 2139
Do 19.05. 14:5512771 %1034
1038
798
NO 2 (3)   
CIMONE MOUNTAIN
IT 2139
Do 19.05. 13:5512771 %1034
1038
798
O 2 (3)   
CIMONE MOUNTAIN
IT 2139
Do 19.05. 12:5512771 %1034
1038
798
S 2 (4)   
CIMONE MOUNTAIN
IT 2139
Do 19.05. 11:5512667 %1034
1038
798
ONO 2 (4)   
CIMONE MOUNTAIN
IT 2139
Do 19.05. 10:5511358 %1034
1039
798
NNO 2 (4)   
CIMONE MOUNTAIN
IT 2139
Do 19.05. 09:5510362 %1034
1039
798
NNO 2 (3)   
CIMONE MOUNTAIN
IT 2139
Do 19.05. 08:5510257 %1033
1038
797
NNO 2 (3)   
CIMONE MOUNTAIN
IT 2139
Do 19.05. 07:559261 %1033
1039
797
N 2 (3)   
CIMONE MOUNTAIN
IT 2139
Do 19.05. 06:558266 %1032
1039
797
NNO 3 (7)   
CIMONE MOUNTAIN
IT 2139
Do 19.05. 05:557376 %1032
1040
797
ONO 4 (12)   
CIMONE MOUNTAIN
IT 2139
Do 19.05. 04:556170 %1032
1041
797
O 4 (15)   
CIMONE MOUNTAIN
IT 2139
Do 19.05. 03:557-931 %1032
1040
797
ONO 6 (22)   
CIMONE MOUNTAIN
IT 2139
Do 19.05. 02:557-931 %1032
1040
797
O 6 (22)   
CIMONE MOUNTAIN
IT 2139
Do 19.05. 01:557-157 %1032
1040
797
O 6 (22)   
CIMONE MOUNTAIN
IT 2139
Do 19.05. 00:557061 %1032
1040
797
O 6 (21)   
CIMONE MOUNTAIN
IT 2139
Mi 18.05. 23:557166 %1032
1040
797
O 5 (20)   
CIMONE MOUNTAIN
IT 2139
Mi 18.05. 22:558161 %1032
1039
797
O 4 (15)   
CIMONE MOUNTAIN
IT 2139
Mi 18.05. 21:558161 %1031
1038
796
O 4 (14)   
CIMONE MOUNTAIN
IT 2139
Mi 18.05. 20:559576 %1031
1037
796
NO 3 (8)   
CIMONE MOUNTAIN
IT 2139
Mi 18.05. 19:5510571 %1031
1036
796
NNO 2 (3)   
CIMONE MOUNTAIN
IT 2139
Mi 18.05. 18:5511566 %1030
1034
795
NNO 2 (5)   
CIMONE MOUNTAIN
IT 2139
Mi 18.05. 17:5511987 %1030
1034
795
ONO 3 (7)   
CIMONE MOUNTAIN
IT 2139
Mi 18.05. 16:5511882 %1031
1035
796
NO 3 (9)   
CIMONE MOUNTAIN
IT 2139
Mi 18.05. 15:5511882 %1030
1034
795
O 4 (12)   
CIMONE MOUNTAIN
IT 2139
Mi 18.05. 14:5511987 %1030
1034
795
NO 3 (9)   

Altimeter: Einstellung am Altimeter (Höhenmesser), die Höhe 0 muss auf diesen Luftdruckwert zeigen, damit das Gerät die Stationshöhe richtig anzeigt.

NN: Luftdruck reduziert auf "Normal Null", auf Meereshöhe, dieser von der Temperatur abhängige Wert wird bisweilen unkorrekt einfach als "Luftdruck" bezeichnet. Eigentlich nur eine fiktive Größe, die es erlaubt, Stationen auf unterschiedlichen Höhen miteinander zu vergleichen.

Station: Realer Luftdruck an der Station.